McNair Village, Texas
Current Conditions -  °F | °C
As of 12:58 AM on Sunday 21 Dec 2014 (Local Time) from KHLR Reporting Station
Haze Haze  
Wind Chill: 48°   Ceiling: 500
Heat Index: 48°   Visibility: 6mi
Dew Point: 47°   Wind: 3mph
Humidity: 96%   Direction: 140°SE
Pressure: 30.14"   Gusts: NA
Location:  31.2151°N, 97.7405°W
Report Text: KHLR 210658Z AUTO 14003KT 6SM BR BKN005 OVC019 09/08 A3014 RMK AO2 CIG 005V019 SLP206 T00880082
Loading
Personal Weather Stations






























Interactive Weather Map New forecast layout! Learn more

10-Day Weather Forecast

Advertisements
Track Severe Weather on mobile